createdAt,value
2022-08-04T00:02:53.245Z,23.30
2022-08-04T00:08:46.371Z,23.30
2022-08-04T00:14:03.108Z,23.20
2022-08-04T00:19:13.135Z,23.10
2022-08-04T00:24:16.667Z,23.00
2022-08-04T00:29:18.499Z,23.00
2022-08-04T00:34:20.936Z,23.10
2022-08-04T00:39:23.084Z,23.00
2022-08-04T00:45:03.236Z,22.90
2022-08-04T00:50:12.133Z,22.90
2022-08-04T00:55:36.763Z,22.80
2022-08-04T01:00:48.937Z,22.70
2022-08-04T01:06:03.740Z,22.70
2022-08-04T01:11:05.552Z,22.60
2022-08-04T01:16:11.298Z,22.60
2022-08-04T01:21:31.011Z,22.50
2022-08-04T01:26:58.170Z,22.50
2022-08-04T01:32:02.831Z,22.50
2022-08-04T01:37:27.541Z,22.40
2022-08-04T01:42:32.596Z,22.40
2022-08-04T01:47:37.768Z,22.30
2022-08-04T01:52:41.806Z,22.30
2022-08-04T01:57:45.721Z,22.40
2022-08-04T02:02:49.200Z,22.30
2022-08-04T02:08:09.256Z,22.30
2022-08-04T02:13:34.638Z,22.30
2022-08-04T02:19:04.118Z,22.30
2022-08-04T02:24:14.683Z,22.20
2022-08-04T02:29:31.994Z,22.20
2022-08-04T02:34:47.738Z,22.20
2022-08-04T02:39:53.889Z,22.20
2022-08-04T02:44:58.355Z,22.10
2022-08-04T02:50:02.288Z,22.10
2022-08-04T02:55:06.990Z,22.10
2022-08-04T03:00:17.485Z,22.00
2022-08-04T03:05:24.443Z,22.00
2022-08-04T03:10:53.925Z,22.00
2022-08-04T03:16:30.719Z,21.90
2022-08-04T03:22:15.774Z,21.80
2022-08-04T03:27:56.993Z,21.70
2022-08-04T03:33:36.011Z,21.70
2022-08-04T03:39:15.496Z,21.70
2022-08-04T03:44:54.203Z,21.70
2022-08-04T03:50:22.941Z,21.60
2022-08-04T03:55:40.034Z,21.60
2022-08-04T04:01:07.844Z,21.50
2022-08-04T04:06:37.554Z,21.60
2022-08-04T04:12:08.355Z,21.60
2022-08-04T04:17:22.338Z,21.60
2022-08-04T04:22:43.098Z,21.60
2022-08-04T04:27:53.786Z,21.60
2022-08-04T04:33:46.734Z,21.60
2022-08-04T04:39:03.880Z,21.70
2022-08-04T04:44:05.602Z,21.70
2022-08-04T04:49:23.849Z,21.80
2022-08-04T04:54:37.292Z,21.90
2022-08-04T04:59:47.609Z,22.00
2022-08-04T05:05:12.150Z,22.00
2022-08-04T05:10:32.416Z,22.10
2022-08-04T05:15:37.461Z,22.20
2022-08-04T05:20:43.248Z,22.30
2022-08-04T05:25:58.981Z,22.40
2022-08-04T05:31:05.404Z,22.60
2022-08-04T05:36:20.446Z,22.80
2022-08-04T05:41:44.711Z,22.90
2022-08-04T05:46:54.071Z,23.00
2022-08-04T05:52:00.633Z,23.00
2022-08-04T05:57:07.036Z,23.10
2022-08-04T06:02:10.062Z,23.10
2022-08-04T06:07:13.257Z,23.30
2022-08-04T06:12:21.811Z,23.30
2022-08-04T06:18:33.024Z,23.40
2022-08-04T06:22:57.510Z,23.50
2022-08-04T06:28:01.660Z,23.60
2022-08-04T06:33:13.699Z,23.70
2022-08-04T06:38:15.991Z,23.80
2022-08-04T06:43:24.014Z,23.90
2022-08-04T06:48:33.192Z,24.10
2022-08-04T06:53:35.712Z,24.20
2022-08-04T06:58:39.566Z,24.30
2022-08-04T07:03:41.491Z,24.40
2022-08-04T07:08:43.552Z,24.50
2022-08-04T07:13:46.536Z,24.60
2022-08-04T07:18:48.442Z,24.80
2022-08-04T07:23:51.197Z,25.00
2022-08-04T07:28:52.987Z,25.10
2022-08-04T07:34:17.725Z,25.20
2022-08-04T07:39:26.386Z,25.40
2022-08-04T07:44:32.456Z,25.50
2022-08-04T07:49:56.281Z,25.70
2022-08-04T07:54:58.789Z,25.80
2022-08-04T08:00:00.781Z,26.10
2022-08-04T08:05:03.279Z,26.30
2022-08-04T08:10:05.598Z,26.50
2022-08-04T08:15:09.007Z,26.70
2022-08-04T08:20:13.073Z,26.90
2022-08-04T08:25:33.605Z,27.10
2022-08-04T08:30:35.804Z,27.30
2022-08-04T08:35:53.983Z,27.50
2022-08-04T08:41:14.133Z,27.70
2022-08-04T08:46:58.574Z,27.90
2022-08-04T08:53:00.547Z,28.10
2022-08-04T08:58:13.074Z,28.40
2022-08-04T09:03:15.176Z,28.50
2022-08-04T09:08:41.066Z,28.70
2022-08-04T09:13:50.616Z,28.80
2022-08-04T09:19:37.520Z,29.10
2022-08-04T09:24:47.707Z,29.30
2022-08-04T09:30:01.952Z,29.50
2022-08-04T09:35:24.338Z,29.60
2022-08-04T09:40:53.436Z,29.70
2022-08-04T09:46:22.879Z,30.00
2022-08-04T09:51:58.588Z,30.40
2022-08-04T09:57:25.016Z,30.60
2022-08-04T10:02:30.399Z,30.90
2022-08-04T10:07:34.931Z,31.20
2022-08-04T10:13:21.577Z,31.40
2022-08-04T10:18:48.386Z,31.70
2022-08-04T10:24:07.658Z,32.00
2022-08-04T10:29:22.540Z,32.10
2022-08-04T10:34:31.898Z,32.30
2022-08-04T10:40:13.871Z,32.40
2022-08-04T10:45:19.854Z,32.70
2022-08-04T10:50:25.397Z,32.90
2022-08-04T10:56:06.193Z,32.90
2022-08-04T11:01:02.999Z,33.00
2022-08-04T11:06:05.304Z,33.10
2022-08-04T11:11:15.331Z,33.10
2022-08-04T11:16:21.575Z,33.10
2022-08-04T11:21:32.492Z,33.20
2022-08-04T11:26:46.028Z,33.50
2022-08-04T11:31:51.917Z,33.50
2022-08-04T11:37:18.301Z,33.70
2022-08-04T11:42:43.123Z,33.80
2022-08-04T11:47:58.350Z,33.90
2022-08-04T11:53:01.670Z,33.90
2022-08-04T11:58:03.864Z,34.00
2022-08-04T12:03:38.957Z,34.00
2022-08-04T12:08:45.475Z,33.90
2022-08-04T12:14:06.156Z,33.70
2022-08-04T12:19:18.138Z,34.10
2022-08-04T12:24:31.732Z,34.50
2022-08-04T12:29:36.224Z,34.70
2022-08-04T12:34:48.384Z,34.70
2022-08-04T12:40:21.630Z,34.60
2022-08-04T12:45:17.094Z,34.60
2022-08-04T12:50:20.177Z,34.60
2022-08-04T12:55:25.280Z,34.60
2022-08-04T13:00:34.096Z,34.80
2022-08-04T13:05:42.889Z,35.10
2022-08-04T13:10:47.878Z,35.50
2022-08-04T13:16:15.881Z,35.60
2022-08-04T13:21:50.030Z,35.70
2022-08-04T13:26:55.199Z,35.50
2022-08-04T13:31:58.707Z,35.60
2022-08-04T13:37:02.340Z,36.10
2022-08-04T13:42:09.758Z,36.30
2022-08-04T13:47:19.158Z,36.70
2022-08-04T13:52:25.922Z,36.60
2022-08-04T13:57:35.305Z,36.70
2022-08-04T14:02:45.859Z,36.90
2022-08-04T14:07:54.415Z,38.00
2022-08-04T14:12:57.352Z,38.30
2022-08-04T14:18:22.419Z,37.90
2022-08-04T14:23:24.352Z,38.10
2022-08-04T14:29:09.696Z,38.90
2022-08-04T14:34:04.623Z,39.20
2022-08-04T14:39:12.539Z,39.30
2022-08-04T14:44:14.914Z,37.90
2022-08-04T14:49:16.711Z,37.80
2022-08-04T14:54:28.191Z,39.00
2022-08-04T14:59:44.021Z,39.90
2022-08-04T15:06:01.636Z,39.40
2022-08-04T15:10:25.470Z,39.10
2022-08-04T15:15:36.988Z,40.20
2022-08-04T15:20:42.246Z,41.20
2022-08-04T15:25:48.005Z,41.20
2022-08-04T15:30:53.366Z,41.10
2022-08-04T15:36:09.588Z,40.60
2022-08-04T15:41:23.317Z,40.90
2022-08-04T15:47:02.859Z,41.20
2022-08-04T15:52:13.564Z,40.20
2022-08-04T15:57:15.329Z,40.00
2022-08-04T16:02:32.717Z,39.10
2022-08-04T16:07:57.643Z,39.00
2022-08-04T16:13:06.817Z,38.80
2022-08-04T16:18:15.158Z,39.70
2022-08-04T16:23:52.431Z,40.10
2022-08-04T16:28:50.296Z,40.40
2022-08-04T16:34:36.827Z,40.60
2022-08-04T16:50:17.324Z,40.60
2022-08-04T16:55:24.239Z,40.30
2022-08-04T17:00:36.000Z,40.40
2022-08-04T17:05:40.392Z,40.40
2022-08-04T17:10:45.713Z,40.00
2022-08-04T17:15:49.944Z,39.50
2022-08-04T17:21:01.018Z,38.70
2022-08-04T17:26:12.069Z,37.90
2022-08-04T17:31:14.681Z,37.80
2022-08-04T17:36:17.765Z,37.40
2022-08-04T17:41:30.152Z,37.80
2022-08-04T17:46:51.982Z,37.20
2022-08-04T17:52:04.767Z,36.50
2022-08-04T17:57:22.755Z,35.90
2022-08-04T18:02:32.283Z,35.40
2022-08-04T18:08:35.416Z,35.00
2022-08-04T18:13:14.098Z,34.70
2022-08-04T18:18:23.642Z,34.40
2022-08-04T18:23:31.906Z,34.10
2022-08-04T18:28:35.773Z,33.90
2022-08-04T18:33:41.704Z,33.50
2022-08-04T18:38:55.859Z,33.30
2022-08-04T18:44:00.712Z,33.00
2022-08-04T18:49:05.177Z,32.70
2022-08-04T18:54:07.683Z,32.40
2022-08-04T18:59:10.714Z,32.10
2022-08-04T19:04:33.630Z,31.80
2022-08-04T19:09:52.279Z,31.60
2022-08-04T19:15:10.515Z,31.30
2022-08-04T19:20:15.966Z,31.10
2022-08-04T19:25:58.504Z,30.80
2022-08-04T19:30:48.135Z,30.60
2022-08-04T19:35:50.672Z,30.40
2022-08-04T19:40:53.112Z,30.20
2022-08-04T19:45:54.885Z,30.00
2022-08-04T19:50:57.765Z,29.90
2022-08-04T19:56:00.258Z,29.70
2022-08-04T20:01:03.176Z,29.50
2022-08-04T20:06:05.065Z,29.40
2022-08-04T20:11:11.077Z,29.20
2022-08-04T20:16:28.673Z,29.10
2022-08-04T20:21:54.213Z,29.00
2022-08-04T20:26:55.829Z,28.90
2022-08-04T20:32:05.535Z,28.80
2022-08-04T20:37:11.511Z,28.70
2022-08-04T20:42:15.015Z,28.60
2022-08-04T20:47:16.818Z,28.50
2022-08-04T20:52:20.766Z,28.40
2022-08-04T20:57:48.681Z,28.40
2022-08-04T21:02:45.043Z,28.30
2022-08-04T21:07:48.848Z,28.20
2022-08-04T21:12:50.959Z,28.20
2022-08-04T21:17:59.630Z,28.20
2022-08-04T21:23:07.375Z,28.10
2022-08-04T21:28:09.429Z,28.10
2022-08-04T21:33:11.178Z,28.50
2022-08-04T21:38:17.210Z,28.70
2022-08-04T21:43:19.615Z,28.70
2022-08-04T21:48:21.956Z,28.50
2022-08-04T21:53:23.698Z,28.60
2022-08-04T21:58:32.591Z,28.60
2022-08-04T22:03:52.470Z,28.70
2022-08-04T22:08:56.496Z,28.60
2022-08-04T22:19:27.442Z,28.40
2022-08-04T22:24:42.867Z,28.10
2022-08-04T22:29:44.999Z,28.10
2022-08-04T22:34:53.400Z,28.30
2022-08-04T22:39:56.528Z,28.20
2022-08-04T22:44:58.987Z,27.80
2022-08-04T22:50:26.617Z,27.70
2022-08-04T22:55:22.637Z,27.50
2022-08-04T23:00:28.792Z,27.40
2022-08-04T23:05:35.747Z,27.30
2022-08-04T23:10:40.381Z,27.10
2022-08-04T23:15:43.266Z,27.00
2022-08-04T23:20:47.722Z,26.90
2022-08-04T23:26:07.636Z,26.90
2022-08-04T23:31:10.494Z,26.70
2022-08-04T23:36:12.209Z,26.60
2022-08-04T23:41:17.218Z,26.60
2022-08-04T23:46:19.109Z,26.40
2022-08-04T23:51:24.622Z,26.20
2022-08-04T23:56:26.671Z,26.10
